• Join FlightAware (Why Join?)
  • Login
  • US Flag 
07:47PM EDT


 

Airport Tracker/Info


-or-


 

Live Flight TrackerFlight Track Log ✈ HAL156 ✈ 06-May-2013 ✈ PHNL - PHOG / OGG

Flight Track Log - Related Links

Times and Time Zones

All times are in EDT time to prevent confusion due to time zone crossing. See the HAL156 flight status page for this flight to view local times or setup timezone preferences in your user account.

Time Position Orientation Groundspeed Altitude Reporting Facility
EDT Latitude Longitude Course Direction KTS MPH feet Rate Location/Type
01:17PM 21.3167 -157.9000 110° East 190 219 1,100  Level Honolulu Center
01:18PM 21.2667 -157.8667 148° Southeast 240 276 2,900 2,460 Climbing Honolulu Center
01:20PM 21.2544 -157.6554 102° East  Level FlightAware Approximate
01:20PM 21.2000 -157.7167 115° Southeast 290 334 8,600  Level Honolulu Center
01:21PM 21.2359 -157.5911 110° East  Level FlightAware Approximate
01:21PM 21.1833 -157.6167 100° East 310 357 10,900  Level Honolulu Center
01:22PM 21.2148 -157.5276 110° East  Level FlightAware Approximate
01:22PM 21.1833 -157.5167 90° East 360 414 12,400  Level Honolulu Center
01:23PM 21.1833 -157.4000 90° East 400 460 13,000 300 Climbing Honolulu Center
01:24PM 21.1833 -157.2833 90° East 410 472 13,000  Level Honolulu Center
01:25PM 21.1833 -157.1500 90° East 410 472 13,000 -420 Level Honolulu Center
01:26PM 21.1833 -157.0333 90° East 410 472 12,200 -1,080 Descending Honolulu Center
01:27PM 21.2000 -156.9333 80° East 360 414 10,900 -1,320 Descending Honolulu Center
01:28PM 21.2000 -156.8333 90° East 310 357 9,600 -1,500 Descending Honolulu Center
01:29PM 21.1833 -156.7500 102° East 290 334 7,900 -1,800 Descending Honolulu Center
01:30PM 21.1667 -156.6500 100° East 290 334 6,000 -1,740 Descending Honolulu Center
01:31PM 21.1667 -156.5833 90° East 280 322 4,500 -1,740 Descending Honolulu Center
01:32PM 21.1500 -156.4833 100° East 270 311 2,600 -1,260 Descending Honolulu Center
01:33PM 21.1333 -156.4167 105° East 240 276 2,000 -300 Descending Honolulu Center
01:34PM 21.1167 -156.3500 105° East 220 253 2,000  Level Honolulu Center
01:36PM 21.0500 -156.3000 145° Southeast 160 184 2,000 -120 Level Honolulu Center
01:37PM 21.0167 -156.3333 223° Southwest 130 150 1,700 -180 Descending Honolulu Center
01:38PM 20.9833 -156.3500 205° Southwest 170 196 1,700 -420 Level Honolulu Center
01:39PM 20.9333 -156.3833 212° Southwest 170 196 900 -780 Descending Honolulu Center
01:40PM 20.9000 -156.4167 223° Southwest 130 150 200 -720 Descending Honolulu Center